Time;durP1;ratioP1;P1;durP2;ratioP2;P2;SDS_P1;SDS_P2;PMS_P1;PMS_P2;Temp;Humidity;BMP_temperature;BMP_pressure;BME280_temperature;BME280_humidity;BME280_pressure;Samples;Min_cycle;Max_cycle;Signal;HPM_P1;HPM_P2
2023/06/14 00:00:48;;;;;;;3.83;2.55;;;11.90;92.70;;;;;;5073185;28;20047;-59
2023/06/14 00:03:17;;;;;;;7.35;2.90;;;11.90;92.70;;;;;;5074298;28;20143;-56
2023/06/14 00:05:46;;;;;;;6.72;3.00;;;11.80;92.80;;;;;;5080778;28;20048;-59
2023/06/14 00:08:13;;;;;;;7.07;3.30;;;11.70;93.00;;;;;;5079926;28;20048;-58
2023/06/14 00:10:41;;;;;;;6.70;3.00;;;11.70;93.50;;;;;;5074223;28;20123;-59
2023/06/14 00:13:09;;;;;;;5.35;2.72;;;11.60;94.10;;;;;;5073051;28;20067;-59
2023/06/14 00:15:36;;;;;;;;;;;11.60;94.10;;;;;;5074759;28;20118;-56
2023/06/14 00:18:04;;;;;;;6.22;3.10;;;11.50;94.00;;;;;;5085146;28;19920;-59
2023/06/14 00:20:32;;;;;;;5.68;2.85;;;11.50;93.90;;;;;;5074104;28;20033;-58
2023/06/14 00:23:00;;;;;;;4.32;2.83;;;11.40;94.40;;;;;;5080821;28;20074;-59
2023/06/14 00:25:28;;;;;;;5.15;2.70;;;11.40;94.20;;;;;;5076081;28;20086;-59
2023/06/14 00:27:57;;;;;;;4.85;2.85;;;11.40;94.30;;;;;;5073576;28;20425;-60
2023/06/14 00:30:24;;;;;;;3.88;2.63;;;11.40;94.60;;;;;;5079620;28;20052;-58
2023/06/14 00:32:51;;;;;;;4.15;2.70;;;11.30;94.60;;;;;;5057626;28;20083;-59
2023/06/14 00:35:18;;;;;;;5.97;2.97;;;11.30;95.10;;;;;;5071777;28;20055;-59
2023/06/14 00:37:45;;;;;;;6.65;2.83;;;11.20;95.30;;;;;;5070611;28;20042;-58
2023/06/14 00:40:12;;;;;;;3.78;2.65;;;11.20;95.10;;;;;;5057734;28;20399;-58
2023/06/14 00:42:39;;;;;;;4.72;2.75;;;11.20;95.00;;;;;;5061661;28;20039;-58
2023/06/14 00:45:07;;;;;;;5.07;3.58;;;11.20;94.80;;;;;;5057637;28;20047;-58
2023/06/14 00:47:35;;;;;;;7.72;2.92;;;11.20;95.10;;;;;;5055852;28;20052;-58
2023/06/14 00:50:06;;;;;;;4.03;2.63;;;11.10;97.70;;;;;;5057304;28;20040;-59
2023/06/14 00:52:33;;;;;;;6.28;2.88;;;10.80;99.10;;;;;;5055706;28;20044;-60
2023/06/14 00:55:00;;;;;;;6.80;3.15;;;10.50;99.60;;;;;;5075508;28;20033;-59
2023/06/14 00:57:32;;;;;;;8.65;2.78;;;10.40;99.90;;;;;;5064313;28;20044;-60
2023/06/14 00:59:58;;;;;;;4.78;3.30;;;10.30;99.90;;;;;;5072978;28;20044;-59
2023/06/14 01:02:25;;;;;;;4.38;2.70;;;10.30;99.70;;;;;;5061919;28;20042;-57
2023/06/14 01:04:53;;;;;;;3.92;2.53;;;10.30;99.50;;;;;;5055300;28;20385;-58
2023/06/14 01:08:01;;;;;;;4.47;2.70;;;10.30;99.90;;;;;;5072630;28;20040;-56
2023/06/14 01:10:37;;;;;;;4.35;2.83;;;10.20;99.90;;;;;;5074732;28;20052;-59
2023/06/14 01:13:09;;;;;;;4.20;2.72;;;10.10;99.90;;;;;;5071538;28;20047;-59
2023/06/14 01:15:38;;;;;;;5.13;2.63;;;10.20;99.90;;;;;;5063251;28;20131;-57
2023/06/14 01:18:05;;;;;;;3.65;2.63;;;10.20;99.90;;;;;;5069855;28;20045;-58
2023/06/14 01:20:37;;;;;;;4.78;2.90;;;10.10;99.90;;;;;;5069865;28;20036;-58
2023/06/14 01:23:05;;;;;;;4.75;2.75;;;10.20;99.90;;;;;;5075571;28;20033;-58
2023/06/14 01:25:31;;;;;;;5.43;2.58;;;10.30;99.90;;;;;;5072721;28;20493;-59
2023/06/14 01:28:10;;;;;;;4.40;2.88;;;10.30;99.90;;;;;;5071676;28;20051;-58
2023/06/14 01:30:47;;;;;;;5.22;3.42;;;10.40;99.90;;;;;;5070417;28;20070;-59
2023/06/14 01:33:17;;;;;;;4.38;3.03;;;10.40;99.90;;;;;;5067193;28;20055;-59
2023/06/14 01:35:47;;;;;;;5.80;2.97;;;10.50;99.90;;;;;;5072117;28;21698;-57
2023/06/14 01:38:15;;;;;;;5.15;2.60;;;10.50;99.90;;;;;;5061606;28;20040;-58
2023/06/14 01:40:44;;;;;;;6.72;3.10;;;10.50;99.90;;;;;;5080186;28;20433;-59
2023/06/14 01:43:13;;;;;;;6.10;2.83;;;10.50;99.90;;;;;;5063696;28;20044;-56
2023/06/14 01:45:41;;;;;;;5.72;3.50;;;10.50;99.70;;;;;;5079182;28;20041;-60
2023/06/14 01:48:12;;;;;;;4.97;2.97;;;10.50;99.90;;;;;;5060854;28;20052;-58
2023/06/14 01:50:39;;;;;;;7.07;3.30;;;10.40;99.90;;;;;;5081531;28;20174;-58
2023/06/14 01:53:10;;;;;;;5.82;2.95;;;10.30;99.90;;;;;;5063305;28;20044;-57
2023/06/14 01:55:37;;;;;;;6.15;2.67;;;10.20;99.90;;;;;;5078531;28;20040;-59
2023/06/14 01:58:06;;;;;;;6.10;2.85;;;10.20;99.90;;;;;;5080742;28;20160;-59
2023/06/14 02:00:33;;;;;;;4.60;2.83;;;10.20;99.90;;;;;;5061292;28;20064;-57
2023/06/14 02:02:59;;;;;;;7.90;2.80;;;10.20;99.90;;;;;;5081269;28;20043;-57
2023/06/14 02:05:26;;;;;;;5.65;2.88;;;10.30;99.90;;;;;;5068501;28;20102;-58
2023/06/14 02:07:53;;;;;;;5.93;3.33;;;10.30;99.90;;;;;;5085014;28;20032;-59
2023/06/14 02:10:21;;;;;;;6.13;2.95;;;10.20;99.90;;;;;;5065917;28;20449;-59
2023/06/14 02:12:48;;;;;;;4.85;3.22;;;10.30;99.90;;;;;;5075940;28;20413;-58
2023/06/14 02:15:18;;;;;;;6.65;3.00;;;10.20;99.90;;;;;;5068423;28;20067;-58
2023/06/14 02:17:49;;;;;;;6.18;3.10;;;10.20;99.90;;;;;;5079064;28;20036;-58
2023/06/14 02:20:16;;;;;;;6.15;2.95;;;10.20;99.90;;;;;;5083644;28;20036;-57
2023/06/14 02:22:44;;;;;;;7.45;3.17;;;10.20;99.90;;;;;;5066945;28;20044;-57
2023/06/14 02:25:11;;;;;;;4.45;2.70;;;10.20;99.90;;;;;;5074043;28;20063;-58
2023/06/14 02:27:40;;;;;;;4.70;2.80;;;10.20;99.90;;;;;;5074513;28;20060;-57
2023/06/14 02:30:07;;;;;;;7.90;2.85;;;10.20;99.90;;;;;;5077356;28;20044;-56
2023/06/14 02:32:35;;;;;;;5.97;3.58;;;10.10;99.90;;;;;;5076008;28;20044;-57
2023/06/14 02:35:03;;;;;;;9.13;3.00;;;10.10;99.90;;;;;;5077552;28;20041;-56
2023/06/14 02:37:30;;;;;;;6.25;3.03;;;10.10;99.90;;;;;;5071032;28;20036;-56
2023/06/14 02:39:57;;;;;;;3.97;2.63;;;10.10;99.90;;;;;;5070801;28;20041;-56
2023/06/14 02:42:23;;;;;;;5.82;3.00;;;10.00;99.90;;;;;;5041997;28;20053;-55
2023/06/14 02:44:51;;;;;;;6.38;3.05;;;9.90;99.90;;;;;;5059376;28;20048;-58
2023/06/14 02:47:18;;;;;;;4.97;2.88;;;10.00;99.90;;;;;;5060131;28;20519;-57
2023/06/14 02:49:48;;;;;;;4.05;2.92;;;10.00;99.90;;;;;;5077798;28;20036;-59
2023/06/14 02:52:15;;;;;;;6.10;3.35;;;9.90;99.90;;;;;;5071300;28;20139;-61
2023/06/14 02:54:42;;;;;;;7.15;3.03;;;9.90;99.90;;;;;;5064348;28;20122;-61
2023/06/14 02:57:10;;;;;;;6.07;2.80;;;9.90;99.90;;;;;;5075680;28;20040;-60
2023/06/14 02:59:38;;;;;;;10.35;3.28;;;9.80;99.90;;;;;;5065735;28;20078;-61
2023/06/14 03:02:05;;;;;;;4.88;3.15;;;9.80;99.90;;;;;;5063215;28;20061;-61
2023/06/14 03:04:36;;;;;;;11.10;3.72;;;9.80;99.90;;;;;;5062044;28;20040;-58
2023/06/14 03:07:10;;;;;;;6.40;2.75;;;9.80;99.90;;;;;;5067515;28;20039;-60
2023/06/14 03:09:39;;;;;;;5.28;3.10;;;9.60;99.90;;;;;;5059054;28;20037;-61
2023/06/14 03:12:09;;;;;;;9.50;3.80;;;9.40;99.90;;;;;;5060661;28;20049;-61
2023/06/14 03:14:36;;;;;;;5.30;3.22;;;9.10;99.90;;;;;;5066197;28;20044;-59
2023/06/14 03:17:04;;;;;;;5.05;3.28;;;8.90;99.90;;;;;;5066265;28;20051;-60
2023/06/14 03:19:33;;;;;;;8.43;3.55;;;8.80;99.90;;;;;;5061168;28;20037;-60
2023/06/14 03:22:02;;;;;;;7.55;3.67;;;8.70;99.90;;;;;;5079198;28;20032;-61
2023/06/14 03:24:36;;;;;;;5.07;3.10;;;8.70;99.90;;;;;;5064275;28;20131;-60
2023/06/14 03:27:09;;;;;;;4.80;3.15;;;8.80;99.90;;;;;;5082283;28;20078;-60
2023/06/14 03:29:38;;;;;;;4.72;3.00;;;8.80;99.90;;;;;;5061225;28;20041;-60
2023/06/14 03:32:07;;;;;;;7.55;3.20;;;8.90;99.90;;;;;;5069487;28;20067;-61
2023/06/14 03:34:39;;;;;;;6.63;3.20;;;9.00;99.90;;;;;;5060851;28;20067;-58
2023/06/14 03:37:08;;;;;;;6.82;3.10;;;9.00;99.90;;;;;;5057078;28;20044;-61
2023/06/14 03:39:35;;;;;;;7.65;3.50;;;9.10;99.90;;;;;;5074575;28;20043;-60
2023/06/14 03:42:02;;;;;;;;;;;9.10;99.90;;;;;;5065339;28;20511;-61
2023/06/14 03:44:30;;;;;;;8.55;3.40;;;9.20;99.90;;;;;;5065487;28;19998;-60
2023/06/14 03:46:56;;;;;;;7.20;3.17;;;9.30;99.90;;;;;;5057102;28;20432;-60
2023/06/14 03:49:26;;;;;;;3.95;2.72;;;9.30;99.90;;;;;;5064344;28;20045;-59
2023/06/14 03:51:52;;;;;;;4.80;3.03;;;9.40;99.90;;;;;;5073928;28;20032;-61
2023/06/14 03:54:22;;;;;;;8.57;3.13;;;9.40;99.90;;;;;;5056688;28;20055;-61
2023/06/14 03:56:53;;;;;;;4.95;3.53;;;9.50;99.90;;;;;;5063793;28;20037;-60
2023/06/14 03:59:19;;;;;;;5.13;3.25;;;9.50;99.90;;;;;;5074736;28;20066;-60
2023/06/14 04:01:46;;;;;;;6.95;3.08;;;9.60;99.90;;;;;;5063003;28;20061;-61
2023/06/14 04:04:18;;;;;;;6.20;3.42;;;9.60;99.90;;;;;;5062997;28;20116;-60
2023/06/14 04:06:48;;;;;;;5.18;3.28;;;9.60;99.90;;;;;;5056003;28;20064;-60
2023/06/14 04:09:14;;;;;;;6.05;3.33;;;9.70;99.90;;;;;;5055771;28;20047;-61
2023/06/14 04:11:41;;;;;;;7.68;2.90;;;9.70;99.90;;;;;;5066786;28;20442;-60
2023/06/14 04:14:08;;;;;;;8.73;3.25;;;9.70;99.90;;;;;;5076564;28;20048;-61
2023/06/14 04:16:35;;;;;;;6.43;4.15;;;9.70;99.90;;;;;;5068226;28;20044;-60
2023/06/14 04:19:02;;;;;;;6.43;3.30;;;9.70;99.90;;;;;;5060798;28;20118;-61
2023/06/14 04:21:29;;;;;;;6.75;3.83;;;9.60;99.90;;;;;;5071506;28;20131;-60
2023/06/14 04:24:01;;;;;;;5.30;3.63;;;9.60;99.90;;;;;;5073597;28;20075;-60
2023/06/14 04:26:33;;;;;;;5.95;3.67;;;9.50;99.90;;;;;;5073076;28;20044;-60
2023/06/14 04:29:01;;;;;;;5.30;3.53;;;9.60;99.90;;;;;;5056042;28;20565;-59
2023/06/14 04:31:37;;;;;;;6.95;3.47;;;9.60;99.90;;;;;;5076716;28;20048;-61
2023/06/14 04:34:07;;;;;;;6.20;3.38;;;9.70;99.90;;;;;;5075502;28;20813;-59
2023/06/14 04:36:36;;;;;;;6.07;3.25;;;9.80;99.90;;;;;;5071526;28;20083;-61
2023/06/14 04:39:04;;;;;;;5.32;3.08;;;9.80;99.90;;;;;;5057473;28;20075;-60
2023/06/14 04:41:31;;;;;;;5.70;3.33;;;9.90;99.90;;;;;;5072578;28;20094;-61
2023/06/14 04:44:01;;;;;;;5.63;3.00;;;10.00;99.90;;;;;;5063700;28;20120;-61
2023/06/14 04:46:31;;;;;;;9.18;3.50;;;10.10;99.90;;;;;;5080890;28;20047;-61
2023/06/14 04:49:01;;;;;;;9.35;3.70;;;10.20;99.90;;;;;;5055394;28;20048;-60
2023/06/14 04:51:33;;;;;;;6.25;3.42;;;10.30;99.90;;;;;;5073385;28;20036;-61
2023/06/14 04:54:01;;;;;;;6.40;4.10;;;10.40;99.90;;;;;;5068059;28;20048;-60
2023/06/14 04:56:30;;;;;;;6.18;4.07;;;10.40;99.90;;;;;;5069623;28;20105;-60
2023/06/14 04:58:56;;;;;;;9.05;4.88;;;10.40;99.90;;;;;;5072358;28;20044;-61
2023/06/14 05:01:24;;;;;;;5.72;4.18;;;10.50;99.90;;;;;;5071345;28;20044;-60
2023/06/14 05:03:51;;;;;;;10.40;4.63;;;10.60;99.90;;;;;;5087598;28;20032;-60
2023/06/14 05:06:18;;;;;;;6.72;4.50;;;10.70;99.90;;;;;;5064657;28;20424;-60
2023/06/14 05:08:46;;;;;;;10.23;4.82;;;10.70;99.90;;;;;;5058502;28;20135;-60
2023/06/14 05:11:13;;;;;;;10.10;5.05;;;10.80;99.90;;;;;;5062707;28;20542;-61
2023/06/14 05:13:40;;;;;;;7.85;4.97;;;10.70;99.90;;;;;;5066442;28;20139;-60
2023/06/14 05:16:10;;;;;;;7.50;5.18;;;10.80;99.90;;;;;;5072011;28;20046;-60
2023/06/14 05:18:38;;;;;;;7.60;4.75;;;10.80;99.90;;;;;;5081739;28;20370;-60
2023/06/14 05:21:05;;;;;;;6.20;4.13;;;10.80;99.90;;;;;;5078530;28;20040;-60
2023/06/14 05:23:32;;;;;;;;;;;10.90;99.90;;;;;;5084379;28;20055;-59
2023/06/14 05:25:59;;;;;;;9.20;4.55;;;10.90;99.90;;;;;;5072932;28;20348;-60
2023/06/14 05:28:26;;;;;;;10.45;4.55;;;11.00;99.90;;;;;;5085041;28;20547;-59
2023/06/14 05:30:52;;;;;;;12.85;4.85;;;11.10;99.90;;;;;;5086953;28;20048;-59
2023/06/14 05:33:19;;;;;;;8.77;4.47;;;11.40;99.90;;;;;;5074694;28;20041;-60
2023/06/14 05:35:46;;;;;;;8.98;4.78;;;11.70;99.90;;;;;;5072569;28;20044;-60
2023/06/14 05:38:13;;;;;;;13.10;4.57;;;11.70;99.90;;;;;;5072693;28;20044;-59
2023/06/14 05:40:40;;;;;;;11.88;5.03;;;11.60;99.90;;;;;;5082294;28;20040;-58
2023/06/14 05:43:07;;;;;;;9.32;4.70;;;11.60;99.90;;;;;;5059061;28;20131;-60
2023/06/14 05:45:33;;;;;;;7.55;4.53;;;11.60;99.90;;;;;;5071731;28;20445;-60
2023/06/14 05:48:00;;;;;;;10.95;4.75;;;11.70;99.90;;;;;;5072669;28;20044;-60
2023/06/14 05:50:27;;;;;;;13.68;5.80;;;11.70;99.90;;;;;;5078553;28;20501;-61
2023/06/14 05:52:54;;;;;;;11.73;5.07;;;11.80;99.90;;;;;;5072284;28;20502;-60
2023/06/14 05:55:20;;;;;;;7.20;4.60;;;11.80;99.90;;;;;;5072424;28;20066;-61
2023/06/14 05:57:48;;;;;;;6.95;4.43;;;11.90;99.90;;;;;;5078841;28;20392;-60
2023/06/14 06:00:15;;;;;;;10.45;4.65;;;11.90;99.90;;;;;;5084112;28;20040;-60
2023/06/14 06:02:43;;;;;;;6.93;4.15;;;12.00;99.90;;;;;;5072302;28;20044;-59
2023/06/14 06:05:12;;;;;;;6.88;3.67;;;12.10;99.90;;;;;;5072251;28;20051;-60
2023/06/14 06:07:40;;;;;;;8.23;4.93;;;12.20;99.90;;;;;;5080196;28;20036;-60
2023/06/14 06:10:07;;;;;;;7.25;4.07;;;12.20;99.90;;;;;;5072118;28;20032;-60
2023/06/14 06:12:34;;;;;;;8.98;4.28;;;12.40;99.90;;;;;;5078257;28;20448;-61
2023/06/14 06:15:00;;;;;;;9.95;4.65;;;12.50;99.90;;;;;;5072057;28;20047;-62
2023/06/14 06:17:27;;;;;;;11.85;4.85;;;12.50;99.90;;;;;;5079214;28;20119;-60
2023/06/14 06:20:09;;;;;;;8.55;4.65;;;12.60;99.90;;;;;;5074364;28;20072;-62
2023/06/14 06:22:36;;;;;;;8.13;4.28;;;12.70;99.90;;;;;;5087991;28;20123;-60
2023/06/14 06:25:03;;;;;;;10.00;4.35;;;12.90;99.90;;;;;;5070723;28;20051;-61
2023/06/14 06:27:30;;;;;;;7.65;3.88;;;12.90;99.90;;;;;;5077561;28;20051;-61
2023/06/14 06:29:57;;;;;;;7.15;4.30;;;13.00;99.90;;;;;;5076707;28;20048;-60
2023/06/14 06:32:23;;;;;;;12.70;4.85;;;13.10;99.90;;;;;;5074254;28;20041;-60
2023/06/14 06:34:51;;;;;;;10.45;4.53;;;13.20;99.90;;;;;;5070292;28;20048;-61
2023/06/14 06:37:19;;;;;;;10.48;4.13;;;13.30;99.90;;;;;;5072015;28;20048;-62
2023/06/14 06:39:47;;;;;;;6.82;4.28;;;13.50;99.90;;;;;;5077741;28;20033;-61
2023/06/14 06:42:14;;;;;;;7.05;4.40;;;13.60;99.90;;;;;;5071993;28;20041;-61
2023/06/14 06:44:42;;;;;;;8.35;4.53;;;13.70;99.90;;;;;;5068770;28;20118;-61
2023/06/14 06:47:11;;;;;;;11.18;4.85;;;13.90;99.90;;;;;;5086916;28;20378;-60
2023/06/14 06:49:38;;;;;;;8.00;4.05;;;14.10;99.90;;;;;;5078782;28;20123;-61
2023/06/14 06:52:06;;;;;;;6.80;3.70;;;14.30;99.90;;;;;;5071697;28;20040;-59
2023/06/14 06:54:33;;;;;;;6.28;3.50;;;14.50;99.90;;;;;;5076417;28;20693;-60
2023/06/14 06:57:01;;;;;;;6.63;3.65;;;14.70;99.90;;;;;;5071620;28;20048;-60
2023/06/14 06:59:28;;;;;;;6.43;3.85;;;14.90;99.90;;;;;;5070563;28;20052;-60
2023/06/14 07:01:55;;;;;;;8.48;4.22;;;15.00;99.90;;;;;;5074771;28;20047;-60
2023/06/14 07:04:21;;;;;;;5.95;3.47;;;15.30;99.90;;;;;;5074428;28;20052;-61
2023/06/14 07:06:48;;;;;;;10.85;4.10;;;15.40;99.90;;;;;;5071444;28;20051;-60
2023/06/14 07:09:15;;;;;;;9.90;3.47;;;15.50;99.90;;;;;;5071237;28;20044;-61
2023/06/14 07:11:43;;;;;;;5.40;3.88;;;15.50;99.90;;;;;;5077893;28;20068;-61
2023/06/14 07:14:10;;;;;;;6.00;3.47;;;15.60;99.90;;;;;;5076350;28;20389;-60
2023/06/14 07:16:37;;;;;;;8.85;3.25;;;15.70;99.90;;;;;;5071081;28;20377;-61
2023/06/14 07:19:05;;;;;;;13.60;3.72;;;15.80;99.90;;;;;;5070402;28;20083;-61
2023/06/14 07:21:31;;;;;;;5.03;3.03;;;15.90;99.90;;;;;;5081288;28;20044;-58
2023/06/14 07:23:58;;;;;;;4.82;3.35;;;16.10;99.90;;;;;;5071471;28;20481;-61
2023/06/14 07:26:26;;;;;;;4.45;3.33;;;16.10;99.90;;;;;;5071125;28;20048;-60
2023/06/14 07:28:53;;;;;;;10.23;3.90;;;16.30;99.70;;;;;;5071127;28;20040;-61
2023/06/14 07:31:19;;;;;;;7.35;3.13;;;16.40;99.30;;;;;;5077708;28;20115;-62
2023/06/14 07:33:46;;;;;;;9.00;3.95;;;16.60;99.90;;;;;;5071213;28;20480;-61
2023/06/14 07:36:13;;;;;;;35.08;7.05;;;16.70;99.90;;;;;;5075199;28;20040;-60
2023/06/14 07:38:40;;;;;;;12.40;4.22;;;17.00;99.90;;;;;;5071714;28;20397;-61
2023/06/14 07:41:07;;;;;;;8.57;3.80;;;17.10;99.90;;;;;;5069923;28;20417;-61
2023/06/14 07:43:34;;;;;;;4.78;3.28;;;17.20;99.40;;;;;;5070990;28;20063;-59
2023/06/14 07:46:02;;;;;;;12.80;3.67;;;17.20;99.30;;;;;;5081043;28;20050;-59
2023/06/14 07:48:34;;;;;;;7.13;3.97;;;17.30;98.10;;;;;;5072823;28;20091;-62
2023/06/14 07:51:01;;;;;;;6.85;3.67;;;17.30;96.90;;;;;;5070530;28;20040;-60
2023/06/14 07:53:28;;;;;;;8.32;4.13;;;17.40;97.40;;;;;;5071062;28;20040;-61
2023/06/14 07:55:56;;;;;;;5.18;3.63;;;17.50;98.20;;;;;;5077732;28;20033;-60
2023/06/14 07:58:22;;;;;;;5.20;3.40;;;17.50;97.50;;;;;;5070887;28;20052;-60
2023/06/14 08:00:49;;;;;;;5.57;3.60;;;17.60;97.80;;;;;;5070104;28;20043;-60
2023/06/14 08:03:16;;;;;;;9.43;3.47;;;17.80;97.50;;;;;;5071052;28;20408;-61
2023/06/14 08:05:43;;;;;;;5.55;3.25;;;17.80;98.20;;;;;;5069632;28;20439;-60
2023/06/14 08:08:10;;;;;;;5.68;3.65;;;18.00;97.20;;;;;;5070932;28;20040;-60
2023/06/14 08:10:36;;;;;;;15.13;3.90;;;18.00;97.30;;;;;;5070073;28;20048;-59
2023/06/14 08:13:03;;;;;;;7.80;3.92;;;18.00;95.00;;;;;;5070461;28;20047;-60
2023/06/14 08:15:30;;;;;;;4.32;3.20;;;18.10;96.90;;;;;;5076100;28;20047;-61
2023/06/14 08:17:59;;;;;;;5.15;3.38;;;18.30;96.40;;;;;;5070960;28;20123;-61
2023/06/14 08:20:26;;;;;;;6.55;3.70;;;18.30;94.80;;;;;;5071027;28;20084;-61
2023/06/14 08:22:56;;;;;;;6.93;3.67;;;18.40;93.70;;;;;;5074291;28;20044;-61
2023/06/14 08:25:23;;;;;;;7.13;3.45;;;18.50;95.30;;;;;;5080314;28;20446;-59
2023/06/14 08:27:50;;;;;;;9.25;4.78;;;18.60;95.00;;;;;;5082455;28;20041;-61
2023/06/14 08:30:17;;;;;;;6.78;3.53;;;18.70;95.80;;;;;;5081634;28;20082;-60
2023/06/14 08:32:44;;;;;;;9.02;3.72;;;18.70;95.90;;;;;;5087693;28;20044;-60
2023/06/14 08:35:12;;;;;;;6.45;3.63;;;18.70;96.40;;;;;;5073929;28;20063;-61
2023/06/14 08:37:41;;;;;;;6.18;3.40;;;18.80;97.40;;;;;;5073652;28;20072;-61
2023/06/14 08:40:29;;;;;;;5.28;3.30;;;18.90;96.00;;;;;;5086414;28;20032;-61
2023/06/14 08:42:56;;;;;;;6.22;3.42;;;19.20;96.90;;;;;;5073023;28;20037;-60
2023/06/14 08:45:25;;;;;;;7.63;3.10;;;19.30;96.60;;;;;;5073997;28;20036;-61
2023/06/14 08:47:57;;;;;;;9.70;3.67;;;19.30;97.10;;;;;;5076485;28;20041;-60
2023/06/14 08:50:27;;;;;;;5.25;3.40;;;19.30;95.70;;;;;;5083366;28;20040;-61
2023/06/14 08:53:00;;;;;;;9.15;3.47;;;19.20;96.10;;;;;;5073643;28;20046;-60
2023/06/14 08:55:28;;;;;;;13.13;3.90;;;19.40;97.00;;;;;;5073648;28;20046;-60
2023/06/14 08:57:58;;;;;;;7.07;3.58;;;19.30;96.80;;;;;;5080209;28;20435;-61
2023/06/14 09:00:26;;;;;;;6.57;3.00;;;19.40;96.30;;;;;;5072852;28;20040;-60
2023/06/14 09:02:59;;;;;;;6.05;3.78;;;19.50;96.00;;;;;;5073406;28;20404;-59
2023/06/14 09:05:27;;;;;;;7.60;3.38;;;19.50;96.40;;;;;;5073253;28;20056;-60
2023/06/14 09:07:55;;;;;;;7.07;3.80;;;19.60;96.60;;;;;;5073901;28;20119;-61
2023/06/14 09:10:22;;;;;;;10.35;4.50;;;19.60;96.10;;;;;;5073259;28;20465;-60
2023/06/14 09:12:51;;;;;;;8.05;3.45;;;19.60;96.30;;;;;;5078396;28;20090;-60
2023/06/14 09:15:17;;;;;;;11.50;3.58;;;19.70;97.20;;;;;;5072945;28;20444;-60
2023/06/14 09:17:45;;;;;;;8.95;3.80;;;19.80;95.90;;;;;;5072971;28;20508;-61
2023/06/14 09:20:18;;;;;;;5.28;3.65;;;19.90;96.80;;;;;;5078706;28;20046;-60
2023/06/14 09:22:46;;;;;;;6.85;3.83;;;19.80;96.80;;;;;;5073232;28;20053;-61
2023/06/14 09:25:15;;;;;;;6.25;4.00;;;20.00;97.40;;;;;;5072821;28;20044;-61
2023/06/14 09:27:59;;;;;;;7.65;3.95;;;20.00;96.50;;;;;;5074206;28;20136;-60
2023/06/14 09:30:26;;;;;;;6.15;3.97;;;20.00;95.60;;;;;;5078878;28;20059;-60
2023/06/14 09:32:53;;;;;;;6.38;3.47;;;20.00;95.70;;;;;;5071954;28;20132;-60
2023/06/14 09:35:20;;;;;;;9.57;3.65;;;20.00;95.40;;;;;;5072922;28;20098;-60
2023/06/14 09:37:47;;;;;;;6.18;3.60;;;20.10;95.20;;;;;;5077741;28;20052;-60
2023/06/14 09:40:20;;;;;;;5.97;3.85;;;20.20;95.70;;;;;;5072360;28;20052;-61
2023/06/14 09:42:47;;;;;;;7.03;3.58;;;20.30;94.90;;;;;;5072347;28;20086;-61
2023/06/14 09:45:19;;;;;;;5.63;3.53;;;20.40;94.10;;;;;;5078222;28;20056;-60
2023/06/14 09:47:47;;;;;;;5.63;3.00;;;20.40;93.10;;;;;;5072668;28;20082;-61
2023/06/14 09:50:31;;;;;;;4.18;3.22;;;20.50;92.30;;;;;;5072261;28;20036;-60
2023/06/14 09:53:05;;;;;;;9.90;3.20;;;20.60;92.20;;;;;;5080546;28;20413;-60
2023/06/14 09:55:36;;;;;;;8.65;3.40;;;20.50;91.50;;;;;;5075367;28;20044;-61
2023/06/14 09:58:07;;;;;;;8.70;3.38;;;20.60;91.70;;;;;;5072258;28;20053;-59
2023/06/14 10:00:36;;;;;;;6.07;3.15;;;20.70;91.80;;;;;;5072400;28;20048;-60
2023/06/14 10:03:11;;;;;;;9.13;3.40;;;20.80;90.70;;;;;;5074546;28;20044;-59
2023/06/14 10:05:43;;;;;;;8.65;3.10;;;20.90;90.90;;;;;;5074645;28;20068;-60
2023/06/14 10:08:17;;;;;;;8.55;2.85;;;21.00;90.90;;;;;;5072145;28;20044;-60
2023/06/14 10:10:44;;;;;;;6.07;3.67;;;21.10;91.10;;;;;;5071494;28;20037;-60
2023/06/14 10:13:12;;;;;;;5.45;3.17;;;21.10;88.80;;;;;;5072028;28;20124;-59
2023/06/14 10:16:00;;;;;;;11.00;3.45;;;21.20;90.50;;;;;;5072068;28;20561;-59
2023/06/14 10:18:50;;;;;;;6.03;3.03;;;21.20;87.60;;;;;;5072242;28;20055;-60
2023/06/14 10:21:42;;;;;;;9.60;3.63;;;21.30;86.70;;;;;;5071765;28;20493;-60
2023/06/14 10:24:13;;;;;;;6.18;3.17;;;21.40;89.80;;;;;;5054099;28;20545;-60
2023/06/14 10:26:54;;;;;;;8.90;3.03;;;21.50;85.70;;;;;;5071478;28;20044;-60
2023/06/14 10:29:31;;;;;;;4.80;3.03;;;21.60;84.10;;;;;;5071892;28;20096;-60
2023/06/14 10:32:00;;;;;;;6.80;3.30;;;21.70;85.60;;;;;;5071633;28;20045;-60
2023/06/14 10:34:28;;;;;;;5.40;3.30;;;21.80;86.90;;;;;;5074476;28;20061;-60
2023/06/14 10:37:06;;;;;;;8.70;3.25;;;21.80;84.90;;;;;;5072029;28;20044;-60
2023/06/14 10:39:42;;;;;;;4.30;3.30;;;21.70;86.90;;;;;;5070637;28;20048;-60
2023/06/14 10:42:09;;;;;;;7.97;3.63;;;21.80;85.60;;;;;;5076058;28;20043;-59
2023/06/14 10:44:43;;;;;;;5.53;3.30;;;21.90;86.70;;;;;;5074080;28;20052;-60
2023/06/14 10:47:21;;;;;;;4.95;3.55;;;21.90;85.60;;;;;;5071127;28;20127;-61
2023/06/14 10:50:09;;;;;;;4.65;3.30;;;21.90;85.00;;;;;;5071431;28;20131;-59
2023/06/14 10:52:41;;;;;;;;;;;21.90;82.10;;;;;;5071997;28;20432;-59
2023/06/14 10:55:21;;;;;;;7.63;3.83;;;22.00;84.90;;;;;;5071165;28;19927;-60
2023/06/14 10:57:58;;;;;;;4.38;3.58;;;22.10;85.40;;;;;;5071734;28;20097;-60
2023/06/14 11:00:27;;;;;;;4.43;3.30;;;22.10;85.30;;;;;;5084160;28;20076;-60
2023/06/14 11:03:21;;;;;;;12.30;3.40;;;22.30;84.60;;;;;;5071006;28;20033;-59
2023/06/14 11:05:48;;;;;;;6.60;3.83;;;22.40;81.90;;;;;;5073710;28;20481;-60
2023/06/14 11:08:36;;;;;;;9.95;3.45;;;22.60;81.80;;;;;;5084058;28;20075;-60
2023/06/14 11:11:07;;;;;;;9.45;3.30;;;22.60;85.80;;;;;;5071345;28;20040;-60
2023/06/14 11:13:37;;;;;;;5.50;3.28;;;22.60;80.90;;;;;;5073870;28;20541;-61
2023/06/14 11:16:11;;;;;;;8.02;3.40;;;22.60;82.50;;;;;;5071479;28;20044;-59
2023/06/14 11:18:39;;;;;;;6.07;3.25;;;22.70;84.40;;;;;;5070683;28;20049;-61
2023/06/14 11:21:06;;;;;;;9.88;4.35;;;22.90;80.50;;;;;;5075219;28;20044;-60
2023/06/14 11:23:32;;;;;;;6.60;3.22;;;23.10;82.50;;;;;;5078188;28;20059;-60
2023/06/14 11:25:59;;;;;;;6.70;3.33;;;23.10;79.40;;;;;;5071406;28;20041;-60
2023/06/14 11:28:40;;;;;;;6.00;3.20;;;22.90;78.30;;;;;;5071230;28;20037;-59
2023/06/14 11:31:07;;;;;;;9.40;3.17;;;23.00;79.20;;;;;;5074741;28;20036;-60
2023/06/14 11:33:34;;;;;;;5.63;3.20;;;23.10;76.80;;;;;;5071139;28;20037;-60
2023/06/14 11:36:04;;;;;;;6.68;3.50;;;23.00;81.40;;;;;;5071182;28;20071;-61
2023/06/14 11:38:34;;;;;;;5.50;3.25;;;23.00;78.40;;;;;;5071094;28;20078;-60
2023/06/14 11:41:01;;;;;;;11.68;3.92;;;23.00;81.10;;;;;;5076330;28;20052;-60
2023/06/14 11:43:29;;;;;;;8.65;3.03;;;23.10;78.50;;;;;;5071065;28;20048;-60
2023/06/14 11:45:55;;;;;;;3.72;3.08;;;23.00;78.20;;;;;;5073762;28;20062;-59
2023/06/14 11:48:41;;;;;;;5.72;2.97;;;23.20;81.30;;;;;;5070806;28;20049;-60
2023/06/14 11:51:08;;;;;;;6.45;3.30;;;23.10;80.60;;;;;;5070235;28;20040;-60
2023/06/14 11:53:35;;;;;;;4.65;3.22;;;23.00;78.10;;;;;;5070774;28;20041;-60
2023/06/14 11:56:03;;;;;;;3.85;2.97;;;23.00;79.40;;;;;;5072799;28;20041;-60
2023/06/14 11:58:30;;;;;;;;;;;23.10;81.50;;;;;;5074831;28;20053;-60
2023/06/14 12:00:57;;;;;;;8.60;3.38;;;23.10;78.70;;;;;;5077859;28;19926;-60
2023/06/14 12:03:27;;;;;;;9.52;3.40;;;23.10;77.70;;;;;;5074649;28;20044;-60
2023/06/14 12:06:08;;;;;;;7.95;3.20;;;23.20;81.30;;;;;;5074678;28;20056;-60
2023/06/14 12:08:39;;;;;;;6.20;3.17;;;23.30;80.90;;;;;;5073420;28;20043;-59
2023/06/14 12:11:13;;;;;;;5.28;3.78;;;23.40;77.50;;;;;;5081984;28;20044;-60
2023/06/14 12:13:41;;;;;;;4.35;3.35;;;23.20;76.00;;;;;;5074270;28;20037;-60
2023/06/14 12:16:09;;;;;;;6.65;3.63;;;23.30;79.40;;;;;;5080119;28;20120;-60
2023/06/14 12:18:38;;;;;;;8.25;3.20;;;23.30;77.00;;;;;;5074392;28;20421;-60
2023/06/14 12:21:06;;;;;;;6.30;3.95;;;23.20;76.10;;;;;;5073428;28;20037;-60
2023/06/14 12:23:46;;;;;;;6.05;3.72;;;23.20;75.90;;;;;;5073811;28;20378;-60
2023/06/14 12:26:18;;;;;;;5.53;3.13;;;23.30;76.50;;;;;;5076726;28;20053;-60
2023/06/14 12:28:47;;;;;;;5.20;3.88;;;23.30;75.90;;;;;;5073907;28;20120;-60
2023/06/14 12:31:16;;;;;;;6.65;3.30;;;23.40;76.40;;;;;;5082783;28;20044;-59
2023/06/14 12:33:48;;;;;;;6.70;3.30;;;23.40;77.10;;;;;;5077770;28;20044;-61
2023/06/14 12:36:16;;;;;;;6.55;3.40;;;23.30;76.20;;;;;;5074181;28;20036;-60
2023/06/14 12:38:43;;;;;;;4.63;3.42;;;23.30;74.30;;;;;;5075768;28;20040;-60
2023/06/14 12:41:10;;;;;;;9.57;3.22;;;23.20;72.20;;;;;;5077881;28;20089;-60
2023/06/14 12:43:37;;;;;;;5.97;3.40;;;23.20;74.00;;;;;;5077552;28;20124;-61
2023/06/14 12:46:04;;;;;;;;;;;23.30;75.10;;;;;;5076172;28;20056;-60
2023/06/14 12:48:31;;;;;;;5.95;3.97;;;23.40;76.20;;;;;;5086887;28;19920;-59
2023/06/14 12:50:58;;;;;;;5.40;3.70;;;23.50;76.50;;;;;;5073368;28;20131;-60
2023/06/14 12:53:25;;;;;;;7.70;3.78;;;23.50;76.10;;;;;;5077818;28;20495;-61
2023/06/14 12:55:52;;;;;;;3.80;3.10;;;23.50;77.20;;;;;;5073461;28;20064;-60
2023/06/14 12:58:19;;;;;;;5.80;3.72;;;23.50;76.80;;;;;;5073233;28;20651;-61